createdAt,value
2018-04-28T00:01:49.044Z,96458.78
2018-04-28T00:04:17.239Z,96470.65
2018-04-28T00:06:45.417Z,96464.76
2018-04-28T00:09:13.607Z,96467.33
2018-04-28T00:11:41.815Z,96464.80
2018-04-28T00:14:12.709Z,96470.31
2018-04-28T00:16:47.588Z,96461.00
2018-04-28T00:19:17.766Z,96471.19
2018-04-28T00:21:49.641Z,96468.34
2018-04-28T00:24:20.283Z,96463.25
2018-04-28T00:26:49.259Z,96465.78
2018-04-28T00:29:18.326Z,96467.48
2018-04-28T00:32:01.427Z,96465.36
2018-04-28T00:34:31.171Z,96467.05
2018-04-28T00:37:02.026Z,96473.84
2018-04-28T00:39:37.072Z,96476.38
2018-04-28T00:42:10.068Z,96473.85
2018-04-28T00:44:38.345Z,96474.23
2018-04-28T00:47:09.860Z,96475.91
2018-04-28T00:49:41.826Z,96478.00
2018-04-28T00:52:10.009Z,96482.21
2018-04-28T00:54:44.103Z,96486.86
2018-04-28T00:57:13.115Z,96494.50
2018-04-28T00:59:41.312Z,96489.84
2018-04-28T01:02:10.407Z,96489.42
2018-04-28T01:04:44.007Z,96493.66
2018-04-28T01:07:12.172Z,96489.42
2018-04-28T01:09:40.337Z,96489.89
2018-04-28T01:12:08.517Z,96500.95
2018-04-28T01:14:43.692Z,96501.43
2018-04-28T01:17:24.222Z,96501.01
2018-04-28T01:19:53.354Z,96506.55
2018-04-28T01:22:34.639Z,96507.00
2018-04-28T01:25:18.570Z,96507.87
2018-04-28T01:27:49.131Z,96509.17
2018-04-28T01:30:26.099Z,96503.23
2018-04-28T01:46:50.412Z,96521.13
2018-04-28T01:49:18.627Z,96527.06
2018-04-28T01:51:51.389Z,96530.89
2018-04-28T01:57:32.827Z,96552.04
2018-04-28T02:00:04.349Z,96560.95
2018-04-28T02:02:44.401Z,96561.35
2018-04-28T02:05:30.189Z,96566.45
2018-04-28T02:08:00.735Z,96568.53
2018-04-28T02:10:35.653Z,96572.36
2018-04-28T02:15:46.392Z,96585.91
2018-04-28T02:21:34.320Z,96591.39
2018-04-28T02:38:04.930Z,96598.20
2018-04-28T02:43:31.629Z,96601.56
2018-04-28T02:46:09.072Z,96605.40
2018-04-28T02:51:35.116Z,96614.25
2018-04-28T02:54:04.252Z,96618.03
2018-04-28T02:56:42.242Z,96620.17
2018-04-28T02:59:14.812Z,96621.00
2018-04-28T03:01:44.727Z,96623.52
2018-04-28T03:04:18.414Z,96624.36
2018-04-28T03:09:58.620Z,96623.09
2018-04-28T03:12:26.825Z,96634.49
2018-04-28T03:15:09.938Z,96629.86
2018-04-28T03:17:42.024Z,96631.09
2018-04-28T03:20:20.051Z,96631.55
2018-04-28T03:22:49.044Z,96635.34
2018-04-28T03:25:26.084Z,96640.87
2018-04-28T03:28:06.878Z,96635.34
2018-04-28T03:30:37.119Z,96637.89
2018-04-28T03:33:13.354Z,96648.86
2018-04-28T03:35:49.180Z,96639.92
2018-04-28T03:38:18.360Z,96638.66
2018-04-28T03:43:46.356Z,96644.12
2018-04-28T03:46:14.988Z,96650.85
2018-04-28T03:48:46.101Z,96650.84
2018-04-28T03:51:18.965Z,96655.87
2018-04-28T03:53:49.669Z,96659.27
2018-04-28T03:56:18.590Z,96666.48
2018-04-28T03:58:59.537Z,96656.35
2018-04-28T04:01:40.424Z,96666.95
2018-04-28T04:04:16.568Z,96680.52
2018-04-28T04:09:46.579Z,96673.77
2018-04-28T04:26:01.558Z,96683.18
2018-04-28T04:28:36.457Z,96684.47
2018-04-28T04:31:14.391Z,96687.42
2018-04-28T04:33:52.930Z,96692.52
2018-04-28T04:36:27.872Z,96694.20
2018-04-28T04:39:00.673Z,96695.02
2018-04-28T04:54:45.511Z,96704.34
2018-04-28T04:57:19.262Z,96703.09
2018-04-28T05:03:00.012Z,96716.24
2018-04-28T05:05:33.883Z,96717.94
2018-04-28T05:21:59.378Z,96737.43
2018-04-28T05:38:33.998Z,96746.50
2018-04-28T05:44:13.822Z,96748.23
2018-04-28T05:46:48.988Z,96747.37
2018-04-28T05:52:33.018Z,96746.07
2018-04-28T05:55:09.424Z,96746.05
2018-04-28T05:57:47.290Z,96741.77
2018-04-28T06:25:24.312Z,96743.43
2018-04-28T06:27:52.587Z,96744.64
2018-04-28T06:30:20.814Z,96747.53
2018-04-28T06:32:51.077Z,96755.99
2018-04-28T06:35:20.397Z,96748.65
2018-04-28T06:37:51.264Z,96746.01
2018-04-28T06:40:19.522Z,96756.90
2018-04-28T06:42:47.842Z,96759.71
2018-04-28T06:45:17.739Z,96760.86
2018-04-28T06:47:45.967Z,96755.58
2018-04-28T06:50:14.419Z,96753.68
2018-04-28T06:52:42.779Z,96755.69
2018-04-28T06:55:11.097Z,96752.19
2018-04-28T06:57:44.724Z,96751.29
2018-04-28T07:00:13.906Z,96752.50
2018-04-28T07:02:42.149Z,96753.80
2018-04-28T07:05:10.471Z,96748.67
2018-04-28T07:07:38.687Z,96744.30
2018-04-28T07:10:07.053Z,96746.36
2018-04-28T07:12:35.515Z,96742.95
2018-04-28T07:15:03.817Z,96750.93
2018-04-28T07:17:32.782Z,96750.83
2018-04-28T07:20:03.235Z,96753.28
2018-04-28T07:22:31.495Z,96748.94
2018-04-28T07:24:59.834Z,96748.01
2018-04-28T07:27:31.025Z,96741.92
2018-04-28T07:29:59.311Z,96742.24
2018-04-28T07:32:27.555Z,96742.22
2018-04-28T07:34:55.814Z,96743.41
2018-04-28T07:37:24.160Z,96740.28
2018-04-28T07:39:52.539Z,96740.53
2018-04-28T07:42:21.033Z,96738.20
2018-04-28T07:44:51.033Z,96745.77
2018-04-28T07:47:19.247Z,96744.72
2018-04-28T07:49:47.526Z,96737.70
2018-04-28T07:52:15.768Z,96746.20
2018-04-28T07:54:44.078Z,96743.18
2018-04-28T07:57:12.296Z,96733.85
2018-04-28T07:59:40.612Z,96742.39
2018-04-28T08:02:08.899Z,96738.48
2018-04-28T08:04:37.139Z,96732.08
2018-04-28T08:07:05.554Z,96730.06
2018-04-28T08:09:34.957Z,96735.41
2018-04-28T08:12:04.576Z,96729.67
2018-04-28T08:14:32.813Z,96727.31
2018-04-28T08:17:01.070Z,96729.41
2018-04-28T08:19:29.410Z,96727.23
2018-04-28T08:21:57.877Z,96724.24
2018-04-28T08:24:26.242Z,96721.17
2018-04-28T08:26:54.522Z,96726.42
2018-04-28T08:29:22.748Z,96725.09
2018-04-28T08:31:51.024Z,96725.38
2018-04-28T08:34:22.550Z,96722.16
2018-04-28T08:36:50.843Z,96710.38
2018-04-28T08:39:19.134Z,96714.24
2018-04-28T08:41:47.399Z,96709.20
2018-04-28T08:44:15.864Z,96711.64
2018-04-28T08:46:44.182Z,96710.05
2018-04-28T08:49:12.440Z,96706.25
2018-04-28T08:51:40.656Z,96706.55
2018-04-28T08:54:08.870Z,96704.70
2018-04-28T08:56:39.518Z,96704.62
2018-04-28T08:59:07.684Z,96696.62
2018-04-28T09:01:36.741Z,96696.45
2018-04-28T09:04:04.990Z,96696.52
2018-04-28T09:06:33.284Z,96696.54
2018-04-28T09:22:02.587Z,96678.20
2018-04-28T09:24:30.793Z,96681.80
2018-04-28T09:27:01.145Z,96677.27
2018-04-28T09:29:29.539Z,96677.87
2018-04-28T09:31:59.147Z,96677.37
2018-04-28T09:34:27.638Z,96676.42
2018-04-28T09:36:56.076Z,96672.13
2018-04-28T09:39:24.332Z,96668.75
2018-04-28T09:41:53.463Z,96672.67
2018-04-28T09:44:22.897Z,96663.83
2018-04-28T10:05:07.655Z,96632.86
2018-04-28T10:07:36.010Z,96632.03
2018-04-28T10:10:04.474Z,96621.86
2018-04-28T10:12:34.556Z,96616.58
2018-04-28T10:15:05.893Z,96608.91
2018-04-28T10:17:35.279Z,96610.82
2018-04-28T10:20:05.826Z,96603.75
2018-04-28T10:22:34.527Z,96601.73
2018-04-28T10:25:04.263Z,96603.66
2018-04-28T10:27:32.788Z,96602.74
2018-04-28T10:30:01.284Z,96595.20
2018-04-28T10:32:31.467Z,96592.19
2018-04-28T10:35:01.439Z,96592.20
2018-04-28T10:37:29.738Z,96589.56
2018-04-28T10:39:58.109Z,96583.47
2018-04-28T10:42:27.313Z,96585.52
2018-04-28T10:44:55.548Z,96583.03
2018-04-28T10:47:26.700Z,96566.80
2018-04-28T10:49:55.235Z,96566.98
2018-04-28T10:52:23.703Z,96570.13
2018-04-28T10:54:51.981Z,96562.03
2018-04-28T10:57:20.248Z,96548.05
2018-04-28T10:59:48.497Z,96549.39
2018-04-28T11:02:16.699Z,96546.09
2018-04-28T11:04:45.003Z,96536.59
2018-04-28T11:07:13.248Z,96536.79
2018-04-28T11:09:41.472Z,96537.06
2018-04-28T11:12:09.727Z,96532.75
2018-04-28T11:14:37.873Z,96529.22
2018-04-28T11:17:06.052Z,96525.69
2018-04-28T11:19:34.397Z,96529.27
2018-04-28T11:22:02.742Z,96518.09
2018-04-28T11:24:30.893Z,96526.41
2018-04-28T11:26:59.053Z,96511.20
2018-04-28T11:29:27.218Z,96521.10
2018-04-28T11:31:55.382Z,96512.60
2018-04-28T11:34:23.553Z,96506.52
2018-04-28T11:36:51.747Z,96502.48
2018-04-28T11:39:19.894Z,96495.67
2018-04-28T11:41:48.080Z,96502.52
2018-04-28T11:44:16.213Z,96495.55
2018-04-28T11:46:44.397Z,96494.83
2018-04-28T11:49:12.614Z,96485.23
2018-04-28T11:51:40.752Z,96485.79
2018-04-28T11:54:08.940Z,96484.97
2018-04-28T11:56:37.154Z,96473.99
2018-04-28T11:59:05.383Z,96466.59
2018-04-28T12:01:33.568Z,96463.25
2018-04-28T12:04:01.821Z,96466.75
2018-04-28T12:06:29.969Z,96454.25
2018-04-28T12:08:58.137Z,96449.67
2018-04-28T12:11:26.325Z,96447.26
2018-04-28T12:13:54.483Z,96452.75
2018-04-28T12:16:22.687Z,96447.80
2018-04-28T12:18:50.865Z,96439.83
2018-04-28T12:21:19.014Z,96442.05
2018-04-28T12:23:47.191Z,96436.14
2018-04-28T12:26:15.337Z,96427.06
2018-04-28T12:28:43.528Z,96429.48
2018-04-28T12:31:11.685Z,96421.38
2018-04-28T12:33:39.882Z,96416.97
2018-04-28T12:36:08.079Z,96417.47
2018-04-28T12:38:38.680Z,96428.36
2018-04-28T12:41:08.389Z,96422.25
2018-04-28T12:43:36.540Z,96417.22
2018-04-28T12:46:04.692Z,96410.14
2018-04-28T12:48:32.885Z,96405.33
2018-04-28T12:51:01.047Z,96407.28
2018-04-28T12:53:29.180Z,96402.76
2018-04-28T12:55:57.378Z,96393.43
2018-04-28T12:58:25.517Z,96390.75
2018-04-28T13:00:53.702Z,96398.17
2018-04-28T13:03:22.102Z,96393.05
2018-04-28T13:05:50.324Z,96390.24
2018-04-28T13:08:18.470Z,96387.01
2018-04-28T13:10:46.620Z,96378.04
2018-04-28T13:13:14.778Z,96375.25
2018-04-28T13:15:42.934Z,96370.27
2018-04-28T13:18:11.091Z,96378.85
2018-04-28T13:20:39.241Z,96369.37
2018-04-28T13:23:07.538Z,96365.27
2018-04-28T13:25:35.732Z,96365.13
2018-04-28T13:28:03.920Z,96366.63
2018-04-28T13:30:32.078Z,96359.02
2018-04-28T13:33:00.354Z,96355.73
2018-04-28T13:35:28.548Z,96359.34
2018-04-28T13:37:56.682Z,96355.45
2018-04-28T13:40:24.828Z,96353.55
2018-04-28T13:42:53.007Z,96350.53
2018-04-28T13:45:21.162Z,96351.33
2018-04-28T13:47:49.296Z,96342.25
2018-04-28T13:50:17.525Z,96344.81
2018-04-28T13:52:45.623Z,96337.58
2018-04-28T13:55:13.791Z,96327.58
2018-04-28T13:57:41.945Z,96322.34
2018-04-28T14:00:10.088Z,96316.25
2018-04-28T14:02:38.346Z,96314.61
2018-04-28T14:05:06.499Z,96315.09
2018-04-28T14:07:34.683Z,96317.39
2018-04-28T14:10:02.837Z,96312.11
2018-04-28T14:12:30.968Z,96307.78
2018-04-28T14:14:59.169Z,96311.78
2018-04-28T14:17:27.293Z,96312.22
2018-04-28T14:19:55.485Z,96310.95
2018-04-28T14:22:23.619Z,96309.50
2018-04-28T14:24:51.799Z,96303.38
2018-04-28T14:27:19.963Z,96297.79
2018-04-28T14:29:48.106Z,96298.72
2018-04-28T14:32:16.287Z,96290.70
2018-04-28T14:34:44.415Z,96289.78
2018-04-28T14:37:12.574Z,96281.07
2018-04-28T14:39:40.708Z,96278.31
2018-04-28T14:42:08.872Z,96284.82
2018-04-28T14:44:37.027Z,96289.36
2018-04-28T14:47:05.218Z,96287.16
2018-04-28T14:49:33.371Z,96279.81
2018-04-28T14:52:01.485Z,96277.35
2018-04-28T14:54:29.638Z,96275.05
2018-04-28T14:56:57.795Z,96266.55
2018-04-28T14:59:25.969Z,96261.44
2018-04-28T15:01:54.088Z,96260.83
2018-04-28T15:04:22.273Z,96259.34
2018-04-28T15:06:50.415Z,96261.63
2018-04-28T15:09:18.569Z,96256.73
2018-04-28T15:11:46.766Z,96254.20
2018-04-28T15:14:14.896Z,96247.95
2018-04-28T15:16:43.098Z,96253.53
2018-04-28T15:19:11.247Z,96255.39
2018-04-28T15:21:39.462Z,96262.87
2018-04-28T15:24:07.597Z,96252.68
2018-04-28T15:26:35.774Z,96253.64
2018-04-28T15:29:03.887Z,96252.12
2018-04-28T15:31:32.048Z,96248.36
2018-04-28T15:34:00.250Z,96248.99
2018-04-28T15:36:28.399Z,96250.50
2018-04-28T15:38:56.574Z,96247.55
2018-04-28T15:41:24.741Z,96245.98
2018-04-28T15:43:52.913Z,96246.08
2018-04-28T15:46:21.050Z,96245.11
2018-04-28T15:48:49.217Z,96246.67
2018-04-28T15:51:17.403Z,96244.98
2018-04-28T15:53:45.567Z,96237.84
2018-04-28T15:56:13.741Z,96236.08
2018-04-28T15:58:41.882Z,96233.71
2018-04-28T16:01:10.041Z,96230.75
2018-04-28T16:03:38.177Z,96233.59
2018-04-28T16:06:06.371Z,96231.33
2018-04-28T16:08:34.527Z,96227.22
2018-04-28T16:11:02.683Z,96232.95
2018-04-28T16:13:30.833Z,96231.12
2018-04-28T16:15:58.973Z,96230.09
2018-04-28T16:18:27.176Z,96232.41
2018-04-28T16:20:55.317Z,96237.24
2018-04-28T16:23:23.477Z,96232.80
2018-04-28T16:25:51.641Z,96233.32
2018-04-28T16:28:19.813Z,96232.58
2018-04-28T16:30:47.952Z,96236.42
2018-04-28T16:33:16.107Z,96232.86
2018-04-28T16:35:44.286Z,96224.20
2018-04-28T16:38:12.451Z,96232.61
2018-04-28T16:40:40.617Z,96235.02
2018-04-28T16:43:08.956Z,96235.23
2018-04-28T16:45:37.082Z,96237.44
2018-04-28T16:48:05.249Z,96232.19
2018-04-28T16:50:33.386Z,96231.94
2018-04-28T16:53:01.576Z,96229.03
2018-04-28T16:55:29.740Z,96228.56
2018-04-28T16:57:58.035Z,96225.59
2018-04-28T17:00:26.192Z,96221.94
2018-04-28T17:02:54.343Z,96226.03
2018-04-28T17:05:22.505Z,96238.78
2018-04-28T17:07:50.650Z,96225.17
2018-04-28T17:10:18.839Z,96233.33
2018-04-28T17:12:46.992Z,96235.86
2018-04-28T17:15:15.228Z,96226.30
2018-04-28T17:18:02.097Z,96227.95
2018-04-28T17:20:30.284Z,96222.74
2018-04-28T17:22:58.446Z,96228.19
2018-04-28T17:25:26.606Z,96227.22
2018-04-28T17:27:54.777Z,96228.78
2018-04-28T17:30:22.914Z,96227.81
2018-04-28T17:32:51.091Z,96228.98
2018-04-28T17:35:19.206Z,96222.46
2018-04-28T17:37:47.354Z,96228.45
2018-04-28T17:40:15.484Z,96229.82
2018-04-28T17:42:43.675Z,96225.14
2018-04-28T17:45:11.809Z,96233.17
2018-04-28T17:47:39.934Z,96227.13
2018-04-28T17:50:08.101Z,96230.56
2018-04-28T17:52:36.234Z,96237.83
2018-04-28T17:55:04.383Z,96234.43
2018-04-28T17:57:32.520Z,96234.58
2018-04-28T18:00:00.693Z,96233.80
2018-04-28T18:02:28.837Z,96236.32
2018-04-28T18:04:56.983Z,96239.09
2018-04-28T18:07:25.218Z,96247.30
2018-04-28T18:09:53.291Z,96251.52
2018-04-28T18:12:21.439Z,96248.88
2018-04-28T18:14:49.579Z,96258.56
2018-04-28T18:17:17.705Z,96254.58
2018-04-28T18:19:45.886Z,96254.55
2018-04-28T18:22:14.033Z,96253.13
2018-04-28T18:24:42.200Z,96258.76
2018-04-28T18:27:10.353Z,96262.27
2018-04-28T18:29:38.532Z,96268.58
2018-04-28T18:32:06.649Z,96266.23
2018-04-28T18:34:34.800Z,96266.30
2018-04-28T18:37:02.942Z,96269.23
2018-04-28T18:39:31.068Z,96274.62
2018-04-28T18:41:59.231Z,96276.19
2018-04-28T18:44:27.404Z,96272.31
2018-04-28T18:46:55.538Z,96273.05
2018-04-28T18:49:23.698Z,96273.46
2018-04-28T18:51:51.890Z,96276.78
2018-04-28T18:54:20.072Z,96274.17
2018-04-28T18:56:48.253Z,96277.45
2018-04-28T18:59:16.425Z,96276.00
2018-04-28T19:01:44.573Z,96275.92
2018-04-28T19:04:12.732Z,96275.25
2018-04-28T19:06:40.904Z,96278.44
2018-04-28T19:09:09.035Z,96280.06
2018-04-28T19:11:37.173Z,96276.81
2018-04-28T19:14:05.349Z,96279.17
2018-04-28T19:16:33.503Z,96275.08
2018-04-28T19:19:01.685Z,96277.02
2018-04-28T19:21:29.871Z,96285.69
2018-04-28T19:23:58.007Z,96282.83
2018-04-28T19:26:26.193Z,96282.94
2018-04-28T19:28:54.367Z,96282.63
2018-04-28T19:31:22.524Z,96281.85
2018-04-28T19:33:50.685Z,96285.83
2018-04-28T19:36:18.848Z,96279.09
2018-04-28T19:38:47.034Z,96291.59
2018-04-28T19:41:15.158Z,96286.61
2018-04-28T19:43:43.301Z,96290.59
2018-04-28T19:46:11.443Z,96288.22
2018-04-28T19:48:39.612Z,96291.38
2018-04-28T19:51:07.755Z,96288.45
2018-04-28T19:53:35.931Z,96298.00
2018-04-28T19:56:04.909Z,96293.82
2018-04-28T19:58:33.064Z,96289.66
2018-04-28T20:01:01.224Z,96298.81
2018-04-28T20:03:29.400Z,96298.45
2018-04-28T20:05:57.518Z,96294.22
2018-04-28T20:08:25.694Z,96293.88
2018-04-28T20:10:53.824Z,96288.77
2018-04-28T20:13:21.967Z,96293.98
2018-04-28T20:15:50.141Z,96293.19
2018-04-28T20:18:18.307Z,96291.10
2018-04-28T20:20:46.465Z,96296.73
2018-04-28T20:23:26.419Z,96290.83
2018-04-28T20:25:54.591Z,96283.98
2018-04-28T20:28:22.792Z,96288.33
2018-04-28T20:30:50.958Z,96283.26
2018-04-28T20:33:19.129Z,96285.98
2018-04-28T20:35:47.315Z,96285.59
2018-04-28T20:38:15.426Z,96284.08
2018-04-28T20:40:43.596Z,96283.34
2018-04-28T20:43:11.760Z,96282.19
2018-04-28T20:45:39.925Z,96278.06
2018-04-28T20:48:08.124Z,96274.44
2018-04-28T20:50:36.307Z,96276.73
2018-04-28T20:53:04.471Z,96277.70
2018-04-28T20:55:32.621Z,96281.72
2018-04-28T20:58:00.833Z,96282.25
2018-04-28T21:00:28.983Z,96280.64
2018-04-28T21:02:57.133Z,96278.59
2018-04-28T21:05:25.297Z,96277.06
2018-04-28T21:07:53.428Z,96276.46
2018-04-28T21:10:21.561Z,96276.23
2018-04-28T21:12:49.718Z,96272.92
2018-04-28T21:15:17.874Z,96268.37
2018-04-28T21:17:46.030Z,96270.19
2018-04-28T21:20:14.221Z,96274.55
2018-04-28T21:22:42.418Z,96266.50
2018-04-28T21:25:10.588Z,96272.11
2018-04-28T21:27:38.769Z,96270.03
2018-04-28T21:30:06.950Z,96266.70
2018-04-28T21:32:35.101Z,96264.19
2018-04-28T21:35:03.279Z,96262.95
2018-04-28T21:37:31.480Z,96260.44
2018-04-28T21:39:59.722Z,96263.45
2018-04-28T21:42:27.900Z,96260.92
2018-04-28T21:44:56.076Z,96257.59
2018-04-28T21:47:24.216Z,96261.93
2018-04-28T21:49:52.390Z,96259.09
2018-04-28T21:52:20.560Z,96258.05
2018-04-28T21:54:48.742Z,96257.42
2018-04-28T21:57:16.919Z,96250.34
2018-04-28T21:59:45.074Z,96251.73
2018-04-28T22:02:13.269Z,96255.24
2018-04-28T22:04:41.500Z,96257.89
2018-04-28T22:07:09.694Z,96255.85
2018-04-28T22:09:37.867Z,96249.92
2018-04-28T22:12:06.021Z,96250.40
2018-04-28T22:14:34.237Z,96249.72
2018-04-28T22:17:02.470Z,96252.33
2018-04-28T22:19:30.661Z,96251.48
2018-04-28T22:21:58.840Z,96244.27
2018-04-28T22:24:27.031Z,96243.41
2018-04-28T22:26:55.185Z,96250.29
2018-04-28T22:29:23.363Z,96248.28
2018-04-28T22:31:51.531Z,96252.27
2018-04-28T22:34:19.672Z,96252.34
2018-04-28T22:36:47.830Z,96249.49
2018-04-28T22:39:15.963Z,96241.83
2018-04-28T22:41:44.111Z,96249.59
2018-04-28T22:44:12.267Z,96250.11
2018-04-28T22:46:40.487Z,96248.56
2018-04-28T22:49:08.638Z,96248.27
2018-04-28T22:51:36.800Z,96244.17
2018-04-28T22:54:04.960Z,96245.19
2018-04-28T22:56:33.153Z,96243.48
2018-04-28T22:59:01.329Z,96240.97
2018-04-28T23:01:29.467Z,96238.37
2018-04-28T23:03:57.600Z,96234.52
2018-04-28T23:06:25.772Z,96233.29
2018-04-28T23:08:54.001Z,96238.88
2018-04-28T23:11:22.096Z,96238.11
2018-04-28T23:13:50.251Z,96234.35
2018-04-28T23:16:18.425Z,96233.20
2018-04-28T23:18:46.569Z,96231.99
2018-04-28T23:21:14.761Z,96226.11
2018-04-28T23:23:42.880Z,96229.71
2018-04-28T23:26:11.029Z,96232.00
2018-04-28T23:28:39.162Z,96227.47
2018-04-28T23:31:07.343Z,96226.34
2018-04-28T23:33:35.492Z,96219.21
2018-04-28T23:36:03.654Z,96216.77
2018-04-28T23:38:31.793Z,96215.64
2018-04-28T23:40:59.941Z,96214.09
2018-04-28T23:43:28.073Z,96206.22
2018-04-28T23:45:56.251Z,96206.28
2018-04-28T23:48:24.415Z,96200.08
2018-04-28T23:50:52.562Z,96203.23
2018-04-28T23:53:20.825Z,96196.17
2018-04-28T23:55:48.975Z,96193.36
2018-04-28T23:58:17.146Z,96195.27
